Flight Track Log - Related Links

Times and Time Zones

All times are in EDT time to prevent confusion due to time zone crossing. See the RPA3143 flight status page for this flight to view local times or setup timezone preferences in your user account.


Time Position Orientation Groundspeed Altitude Reporting Facility
EDT Latitude Longitude Course Direction KTS MPH feet Rate Location/Type
Sun 06:10:12 AM 40.4189 -80.2422 203° Southwest 233 268 5,200  Level Cleveland Center
Sun 06:11:00 AM 40.3314 -79.9062 164° South  Level Estimated
Sun 06:11:12 AM 40.3564 -80.2181 164° South 288 331 8,200  Level Cleveland Center
Sun 06:12:00 AM 40.2778 -79.7976 162° South  Level Estimated
Sun 06:12:12 AM 40.2792 -80.1831 161° South 288 331 11,300  Level Cleveland Center
Sun 06:13:00 AM 40.1951 -79.8680 213° Southwest  Level FlightAware Approximate
Sun 06:13:12 AM 40.1997 -80.1456 160° South 288 331 14,100  Level Cleveland Center
Sun 06:14:00 AM 40.1447 -79.7571 161° South  Level Estimated
Sun 06:14:12 AM 40.1161 -80.1081 161° South 307 353 16,900  Level Cleveland Center
Sun 06:15:00 AM 40.0541 -79.8080 203° Southwest  Level FlightAware Approximate
Sun 06:15:12 AM 40.0306 -80.0706 161° South 318 366 19,000  Level Cleveland Center
Sun 06:16:12 AM 39.9386 -80.0281 160° South 332 382 21,000 1,000 Climbing Cleveland Center
Sun 06:17:12 AM 39.8447 -79.9856 161° South 344 396 21,000  Level Cleveland Center
Sun 06:18:12 AM 39.7528 -79.9458 162° South 349 402 21,000  Level Cleveland Center
Sun 06:19:12 AM 39.6608 -79.9036 161° South 349 402 21,000  Level Cleveland Center
Sun 06:20:35 AM 39.5297 -79.8589 165° South 344 396 21,000  Level Washington Center
Sun 06:21:38 AM 39.4344 -79.8425 172° South 344 396 21,000  Level Washington Center
Sun 06:22:39 AM 39.3419 -79.8103 165° South 344 396 21,000  Level Washington Center
Sun 06:23:36 AM 39.2831 -79.6997 125° Southeast 345 397 21,000  Level Washington Center
Sun 06:24:36 AM 39.2733 -79.5569 95° East 334 384 21,000  Level Washington Center
Sun 06:25:38 AM 39.2633 -79.4169 95° East 362 417 21,000  Level Washington Center
Sun 06:26:37 AM 39.2528 -79.2850 96° East 399 459 21,000  Level Washington Center
Sun 06:27:38 AM 39.2367 -79.1317 98° East 404 465 21,000 -50 Level Washington Center
Sun 06:28:37 AM 39.2239 -78.9889 97° East 404 465 20,900  Descending Washington Center
Sun 06:29:39 AM 39.2114 -78.8464 96° East 404 465 21,000 50 Climbing Washington Center
Sun 06:30:37 AM 39.1983 -78.7064 97° East 404 465 21,000 -718 Level Washington Center
Sun 06:31:36 AM 39.1831 -78.5667 98° East 404 465 19,600 -1,587 Descending Washington Center
Sun 06:32:38 AM 39.1697 -78.4294 97° East 399 459 17,800 -1,289 Descending Washington Center
Sun 06:33:37 AM 39.1475 -78.3028 103° East 381 438 17,000 -400 Descending Washington Center
Sun 06:34:38 AM 39.1169 -78.1814 108° East 363 418 17,000 -347 Level Washington Center
Sun 06:35:38 AM 39.0861 -78.0572 108° East 358 412 16,300 -1,322 Descending Washington Center
Sun 06:36:36 AM 39.0531 -77.9358 109° East 363 418 14,400 -1,765 Descending Washington Center
Sun 06:37:37 AM 39.0281 -77.8308 107° East 351 404 12,800 -1,686 Descending Washington Center
Sun 06:38:37 AM 38.9989 -77.7150 108° East 322 371 11,000 -1,699 Descending Washington Center
Sun 06:39:30 AM 38.9667 -77.6167 113° Southeast 308 354 9,600 -1,540 Descending Potomac TRACON
Sun 06:40:30 AM 38.9500 -77.5167 102° East 305 351 8,100 -1,158 Descending Potomac TRACON
Sun 06:41:24 AM 38.9667 -77.4167 78° East 277 319 7,400 -1,211 Descending Potomac TRACON
Sun 06:42:24 AM 38.9667 -77.3333 90° East 243 280 5,800 -1,526 Descending Potomac TRACON
Sun 06:43:18 AM 38.9667 -77.2667 90° East 233 268 4,500 -1,316 Descending Potomac TRACON
Sun 06:44:18 AM 38.9667 -77.1833 90° East 224 258 3,300 -1,100 Descending Potomac TRACON
Sun 06:45:18 AM 38.9333 -77.1333 131° Southeast 193 222 2,300 -1,000 Descending Potomac TRACON

Login

Don't have an account? Register now (free) for customized features, flight alerts, and more!